createdAt,value
2024-04-23T00:01:11.543Z,7.85
2024-04-23T00:03:38.353Z,8.17
2024-04-23T00:06:05.185Z,8.13
2024-04-23T00:08:32.005Z,7.90
2024-04-23T00:10:58.910Z,7.78
2024-04-23T00:13:25.721Z,7.75
2024-04-23T00:15:52.461Z,7.64
2024-04-23T00:18:19.284Z,7.65
2024-04-23T00:20:46.220Z,8.16
2024-04-23T00:23:12.940Z,7.98
2024-04-23T00:25:39.855Z,8.18
2024-04-23T00:28:06.702Z,8.61
2024-04-23T00:30:35.196Z,8.60
2024-04-23T00:33:02.016Z,8.58
2024-04-23T00:35:28.869Z,8.91
2024-04-23T00:37:56.718Z,8.82
2024-04-23T00:40:33.033Z,8.68
2024-04-23T00:43:00.744Z,8.77
2024-04-23T00:45:36.983Z,9.35
2024-04-23T00:48:13.268Z,9.38
2024-04-23T00:50:49.610Z,9.25
2024-04-23T00:53:16.948Z,8.90
2024-04-23T00:55:44.405Z,8.72
2024-04-23T00:58:11.812Z,9.02
2024-04-23T01:00:39.008Z,8.66
2024-04-23T01:03:07.755Z,8.37
2024-04-23T01:05:44.008Z,8.45
2024-04-23T01:08:11.398Z,8.26
2024-04-23T01:10:47.666Z,8.32
2024-04-23T01:13:14.901Z,8.37
2024-04-23T01:15:42.213Z,8.17
2024-04-23T01:18:09.689Z,8.15
2024-04-23T01:20:37.230Z,8.03
2024-04-23T01:23:04.615Z,7.68
2024-04-23T01:25:40.829Z,7.70
2024-04-23T01:28:08.042Z,7.98
2024-04-23T01:30:35.372Z,7.79
2024-04-23T01:33:02.804Z,7.63
2024-04-23T01:35:30.220Z,7.88
2024-04-23T01:37:57.550Z,7.77
2024-04-23T01:40:33.943Z,8.19
2024-04-23T01:43:00.748Z,7.82
2024-04-23T01:45:27.527Z,7.49
2024-04-23T01:47:54.389Z,7.67
2024-04-23T01:50:21.240Z,7.77
2024-04-23T01:52:48.107Z,7.70
2024-04-23T01:55:14.889Z,7.69
2024-04-23T01:57:41.702Z,7.85
2024-04-23T02:00:08.467Z,7.76
2024-04-23T02:02:35.312Z,7.88
2024-04-23T02:05:02.117Z,7.51
2024-04-23T02:07:30.749Z,8.07
2024-04-23T02:09:57.529Z,8.03
2024-04-23T02:12:24.309Z,8.14
2024-04-23T02:14:51.055Z,7.65
2024-04-23T02:17:17.921Z,7.77
2024-04-23T02:19:44.785Z,7.84
2024-04-23T02:22:11.609Z,7.80
2024-04-23T02:24:38.480Z,7.85
2024-04-23T02:27:05.258Z,7.87
2024-04-23T02:29:32.021Z,8.03
2024-04-23T02:31:58.764Z,7.92
2024-04-23T02:34:25.623Z,8.01
2024-04-23T02:36:52.387Z,7.84
2024-04-23T02:39:19.163Z,8.12
2024-04-23T02:41:46.322Z,7.66
2024-04-23T02:44:13.702Z,8.01
2024-04-23T02:46:41.038Z,7.70
2024-04-23T02:49:08.296Z,7.64
2024-04-23T02:51:35.022Z,7.66
2024-04-23T02:54:01.790Z,7.28
2024-04-23T02:56:28.605Z,7.33
2024-04-23T02:58:55.415Z,7.01
2024-04-23T03:01:22.198Z,7.20
2024-04-23T03:03:49.082Z,7.08
2024-04-23T03:06:15.847Z,7.09
2024-04-23T03:08:42.641Z,6.68
2024-04-23T03:11:09.496Z,6.88
2024-04-23T03:13:36.327Z,7.01
2024-04-23T03:16:05.381Z,6.93
2024-04-23T03:18:33.479Z,6.82
2024-04-23T03:21:00.258Z,7.39
2024-04-23T03:23:27.084Z,6.80
2024-04-23T03:25:53.878Z,6.81
2024-04-23T03:28:20.667Z,7.23
2024-04-23T03:30:47.469Z,6.87
2024-04-23T03:33:14.354Z,7.24
2024-04-23T03:35:41.200Z,7.32
2024-04-23T03:38:08.037Z,7.01
2024-04-23T03:40:34.959Z,7.39
2024-04-23T03:43:01.765Z,7.68
2024-04-23T03:45:28.539Z,7.96
2024-04-23T03:47:55.450Z,7.59
2024-04-23T03:50:31.733Z,7.48
2024-04-23T03:53:08.022Z,7.43
2024-04-23T03:55:34.896Z,7.79
2024-04-23T03:58:01.652Z,7.98
2024-04-23T04:00:28.511Z,7.81
2024-04-23T04:02:55.393Z,7.59
2024-04-23T04:05:22.250Z,7.99
2024-04-23T04:07:49.150Z,7.98
2024-04-23T04:10:16.026Z,7.90
2024-04-23T04:12:42.855Z,8.28
2024-04-23T04:15:09.740Z,8.16
2024-04-23T04:17:36.730Z,7.94
2024-04-23T04:20:03.761Z,7.97
2024-04-23T04:22:30.581Z,8.17
2024-04-23T04:24:57.352Z,8.21
2024-04-23T04:27:24.135Z,8.30
2024-04-23T04:29:50.880Z,8.35
2024-04-23T04:32:17.743Z,8.77
2024-04-23T04:34:44.620Z,8.35
2024-04-23T04:37:11.416Z,9.02
2024-04-23T04:39:40.886Z,8.94
2024-04-23T04:42:07.725Z,9.00
2024-04-23T04:44:34.490Z,9.11
2024-04-23T04:47:03.898Z,8.96
2024-04-23T04:49:31.777Z,9.19
2024-04-23T04:51:58.552Z,9.08
2024-04-23T04:54:34.764Z,8.99
2024-04-23T04:57:01.557Z,9.03
2024-04-23T04:59:28.387Z,8.94
2024-04-23T05:01:55.248Z,9.26
2024-04-23T05:04:22.182Z,8.85
2024-04-23T05:06:48.999Z,9.34
2024-04-23T05:09:15.742Z,9.58
2024-04-23T05:11:42.612Z,9.52
2024-04-23T05:14:09.494Z,9.07
2024-04-23T05:16:36.279Z,9.15
2024-04-23T05:19:03.021Z,9.23
2024-04-23T05:21:29.825Z,9.42
2024-04-23T05:23:56.548Z,9.38
2024-04-23T05:26:23.347Z,9.65
2024-04-23T05:28:50.324Z,9.41
2024-04-23T05:31:17.239Z,9.09
2024-04-23T05:33:44.308Z,9.37
2024-04-23T05:36:11.320Z,9.12
2024-04-23T05:38:38.261Z,9.27
2024-04-23T05:41:07.242Z,9.58
2024-04-23T05:43:36.264Z,9.35
2024-04-23T05:46:03.067Z,9.43
2024-04-23T05:48:29.879Z,8.81
2024-04-23T05:50:56.647Z,8.49
2024-04-23T05:53:23.452Z,8.73
2024-04-23T05:55:51.260Z,8.78
2024-04-23T05:58:18.694Z,8.81
2024-04-23T06:00:52.092Z,8.68
2024-04-23T06:03:19.363Z,8.60
2024-04-23T06:05:55.611Z,8.33
2024-04-23T06:08:24.256Z,8.40
2024-04-23T06:11:02.876Z,7.97
2024-04-23T06:13:30.158Z,7.86
2024-04-23T06:16:06.490Z,7.97
2024-04-23T06:18:33.528Z,7.35
2024-04-23T06:21:00.343Z,7.95
2024-04-23T06:23:27.193Z,8.08
2024-04-23T06:25:56.796Z,7.88
2024-04-23T06:28:23.653Z,7.83
2024-04-23T06:30:50.450Z,7.64
2024-04-23T06:33:17.334Z,7.79
2024-04-23T06:35:44.169Z,7.77
2024-04-23T06:38:11.167Z,7.41
2024-04-23T06:40:39.889Z,7.63
2024-04-23T06:43:06.707Z,7.10
2024-04-23T06:45:33.506Z,7.22
2024-04-23T06:48:00.432Z,7.49
2024-04-23T06:50:27.839Z,7.32
2024-04-23T06:52:54.722Z,6.98
2024-04-23T06:55:21.512Z,6.97
2024-04-23T06:57:48.375Z,6.85
2024-04-23T07:00:15.373Z,7.08
2024-04-23T07:02:42.302Z,7.05
2024-04-23T07:05:09.206Z,6.59
2024-04-23T07:07:37.806Z,7.11
2024-04-23T07:10:04.644Z,6.99
2024-04-23T07:12:31.449Z,6.96
2024-04-23T07:14:58.247Z,7.05
2024-04-23T07:17:26.143Z,6.79
2024-04-23T07:20:02.801Z,7.59
2024-04-23T07:22:39.160Z,7.74
2024-04-23T07:25:15.414Z,7.64
2024-04-23T07:27:42.570Z,7.52
2024-04-23T07:30:18.861Z,7.37
2024-04-23T07:32:55.191Z,7.79
2024-04-23T07:35:31.635Z,7.45
2024-04-23T07:38:07.968Z,7.26
2024-04-23T07:40:35.434Z,7.32
2024-04-23T07:43:02.713Z,7.40
2024-04-23T07:45:29.894Z,7.40
2024-04-23T07:48:06.307Z,7.30
2024-04-23T07:50:33.744Z,7.45
2024-04-23T07:53:00.997Z,7.34
2024-04-23T07:55:28.262Z,6.85
2024-04-23T07:57:55.390Z,7.57
2024-04-23T08:00:23.196Z,6.62
2024-04-23T08:02:59.514Z,6.55
2024-04-23T08:05:26.737Z,6.38
2024-04-23T08:07:54.142Z,6.41
2024-04-23T08:10:30.468Z,6.32
2024-04-23T08:12:58.393Z,6.86
2024-04-23T08:15:34.673Z,6.19
2024-04-23T08:18:02.162Z,6.54
2024-04-23T08:20:40.265Z,6.43
2024-04-23T08:23:18.310Z,6.67
2024-04-23T08:25:54.557Z,6.15
2024-04-23T08:28:21.907Z,6.24
2024-04-23T08:30:49.250Z,6.45
2024-04-23T08:33:16.679Z,6.63
2024-04-23T08:35:43.959Z,6.81
2024-04-23T08:38:11.397Z,6.45
2024-04-23T08:40:38.166Z,6.45
2024-04-23T08:43:07.022Z,6.63
2024-04-23T08:45:36.246Z,6.81
2024-04-23T08:48:03.104Z,6.84
2024-04-23T08:50:29.935Z,7.17
2024-04-23T08:52:56.723Z,6.63
2024-04-23T08:55:23.482Z,6.66
2024-04-23T08:57:50.300Z,6.68
2024-04-23T09:00:17.075Z,6.72
2024-04-23T09:02:45.948Z,6.56
2024-04-23T09:05:12.833Z,6.86
2024-04-23T09:07:39.694Z,6.87
2024-04-23T09:10:06.506Z,6.39
2024-04-23T09:12:33.316Z,6.79
2024-04-23T09:15:03.019Z,6.97
2024-04-23T09:17:30.089Z,7.02
2024-04-23T09:19:56.971Z,6.65
2024-04-23T09:22:23.805Z,5.77
2024-04-23T09:24:50.536Z,7.54
2024-04-23T09:27:17.355Z,6.36
2024-04-23T09:29:44.134Z,5.94
2024-04-23T09:32:11.099Z,6.42
2024-04-23T09:34:39.795Z,7.01
2024-04-23T09:37:06.779Z,6.71
2024-04-23T09:39:46.049Z,6.60
2024-04-23T09:42:14.543Z,6.66
2024-04-23T09:44:50.794Z,6.59
2024-04-23T09:47:27.192Z,7.33
2024-04-23T09:50:03.583Z,8.07
2024-04-23T09:52:30.839Z,8.05
2024-04-23T09:55:07.150Z,7.22
2024-04-23T09:57:43.332Z,7.16
2024-04-23T10:00:10.544Z,7.11
2024-04-23T10:02:46.974Z,7.12
2024-04-23T10:05:14.561Z,7.23
2024-04-23T10:07:41.971Z,7.23
2024-04-23T10:10:08.756Z,7.06
2024-04-23T10:12:35.584Z,6.91
2024-04-23T10:15:02.497Z,6.86
2024-04-23T10:17:29.358Z,6.44
2024-04-23T10:19:57.994Z,6.68
2024-04-23T10:22:24.774Z,6.72
2024-04-23T10:24:51.614Z,6.76
2024-04-23T10:27:18.397Z,6.93
2024-04-23T10:29:45.187Z,6.91
2024-04-23T10:32:11.978Z,6.94
2024-04-23T10:34:38.923Z,7.17
2024-04-23T10:37:05.689Z,7.59
2024-04-23T10:39:32.462Z,7.44
2024-04-23T10:41:59.280Z,7.64
2024-04-23T10:44:26.106Z,7.60
2024-04-23T10:46:52.910Z,8.09
2024-04-23T10:49:19.754Z,8.05
2024-04-23T10:51:50.871Z,8.07
2024-04-23T10:54:17.656Z,8.20
2024-04-23T10:56:44.467Z,7.89
2024-04-23T10:59:11.261Z,9.35
2024-04-23T11:01:38.224Z,8.49
2024-04-23T11:04:05.151Z,8.32
2024-04-23T11:06:32.042Z,8.78
2024-04-23T11:09:08.241Z,8.68
2024-04-23T11:11:35.679Z,8.82
2024-04-23T11:14:11.963Z,8.68
2024-04-23T11:16:39.598Z,8.39
2024-04-23T11:19:07.116Z,8.47
2024-04-23T11:21:34.539Z,8.62
2024-04-23T11:24:01.826Z,8.37
2024-04-23T11:26:29.000Z,9.11
2024-04-23T11:29:05.283Z,9.11
2024-04-23T11:31:32.484Z,8.96
2024-04-23T11:34:08.852Z,8.86
2024-04-23T11:36:36.084Z,8.96
2024-04-23T11:39:03.410Z,8.78
2024-04-23T11:41:30.824Z,9.11
2024-04-23T11:43:58.313Z,8.91
2024-04-23T11:46:25.642Z,9.27
2024-04-23T11:48:52.902Z,8.77
2024-04-23T11:51:29.075Z,8.21
2024-04-23T11:53:56.318Z,8.47
2024-04-23T11:56:32.493Z,8.62
2024-04-23T11:59:08.864Z,8.27
2024-04-23T12:01:36.333Z,8.12
2024-04-23T12:04:03.561Z,8.91
2024-04-23T12:06:31.083Z,9.01
2024-04-23T12:09:07.368Z,8.91
2024-04-23T12:11:43.647Z,8.36
2024-04-23T12:14:11.138Z,8.76
2024-04-23T12:16:38.507Z,8.65
2024-04-23T12:19:05.901Z,8.19
2024-04-23T12:21:33.212Z,7.94
2024-04-23T12:24:09.436Z,8.25
2024-04-23T12:26:45.656Z,8.13
2024-04-23T12:29:13.084Z,8.44
2024-04-23T12:31:49.363Z,9.01
2024-04-23T12:34:16.928Z,8.30
2024-04-23T12:36:44.134Z,9.01
2024-04-23T12:39:11.413Z,9.44
2024-04-23T12:41:38.883Z,8.94
2024-04-23T12:44:06.231Z,8.23
2024-04-23T12:46:42.422Z,8.06
2024-04-23T12:49:09.887Z,7.97
2024-04-23T12:51:37.089Z,8.15
2024-04-23T12:54:14.546Z,8.30
2024-04-23T12:56:41.727Z,8.50
2024-04-23T12:59:09.116Z,8.36
2024-04-23T13:01:50.741Z,9.19
2024-04-23T13:04:28.759Z,8.70
2024-04-23T13:06:56.083Z,9.08
2024-04-23T13:09:22.921Z,8.90
2024-04-23T13:11:49.652Z,9.35
2024-04-23T13:14:16.505Z,9.31
2024-04-23T13:16:48.705Z,9.02
2024-04-23T13:19:16.472Z,9.31
2024-04-23T13:21:43.226Z,9.48
2024-04-23T13:24:09.983Z,9.55
2024-04-23T13:26:36.732Z,9.48
2024-04-23T13:29:03.562Z,9.50
2024-04-23T13:31:30.328Z,9.56
2024-04-23T13:33:57.107Z,9.49
2024-04-23T13:36:23.875Z,9.70
2024-04-23T13:38:50.665Z,10.45
2024-04-23T13:41:17.442Z,10.23
2024-04-23T13:43:44.190Z,10.09
2024-04-23T13:46:11.020Z,10.04
2024-04-23T13:48:37.779Z,9.58
2024-04-23T13:51:04.608Z,9.81
2024-04-23T13:53:31.440Z,9.45
2024-04-23T13:55:58.339Z,9.38
2024-04-23T13:58:25.066Z,10.50
2024-04-23T14:00:52.938Z,10.06
2024-04-23T14:03:19.830Z,9.23
2024-04-23T14:05:46.788Z,9.18
2024-04-23T14:08:14.180Z,8.48
2024-04-23T14:10:41.401Z,9.26
2024-04-23T14:13:08.739Z,9.54
2024-04-23T14:15:36.069Z,9.69
2024-04-23T14:18:03.447Z,9.25
2024-04-23T14:20:39.693Z,9.51
2024-04-23T14:23:07.077Z,9.15
2024-04-23T14:25:34.345Z,9.72
2024-04-23T14:28:10.526Z,9.21
2024-04-23T14:30:37.821Z,9.25
2024-04-23T14:33:14.137Z,9.08
2024-04-23T14:35:50.453Z,8.37
2024-04-23T14:38:17.916Z,7.75
2024-04-23T14:40:54.178Z,7.77
2024-04-23T14:43:30.427Z,7.96
2024-04-23T14:45:57.781Z,7.86
2024-04-23T14:48:25.170Z,8.05
2024-04-23T14:50:52.598Z,7.51
2024-04-23T14:53:21.888Z,7.67
2024-04-23T14:55:58.559Z,7.49
2024-04-23T14:58:25.934Z,7.85
2024-04-23T15:01:02.258Z,8.30
2024-04-23T15:03:31.009Z,7.85
2024-04-23T15:05:58.381Z,7.71
2024-04-23T15:08:25.701Z,7.74
2024-04-23T15:10:53.208Z,8.41
2024-04-23T15:13:29.448Z,8.96
2024-04-23T15:16:05.685Z,8.65
2024-04-23T15:18:33.197Z,8.48
2024-04-23T15:21:00.638Z,8.25
2024-04-23T15:23:36.833Z,8.44
2024-04-23T15:26:04.254Z,8.87
2024-04-23T15:28:31.724Z,8.52
2024-04-23T15:31:07.953Z,8.77
2024-04-23T15:33:35.326Z,9.08
2024-04-23T15:36:05.482Z,9.10
2024-04-23T15:38:36.551Z,9.12
2024-04-23T15:41:04.189Z,9.40
2024-04-23T15:43:31.747Z,9.08
2024-04-23T15:45:58.910Z,9.51
2024-04-23T15:48:35.157Z,9.05
2024-04-23T15:51:02.539Z,9.51
2024-04-23T15:53:29.739Z,9.41
2024-04-23T15:55:56.948Z,9.84
2024-04-23T15:58:33.262Z,9.19
2024-04-23T16:01:00.602Z,9.40
2024-04-23T16:03:27.997Z,9.83
2024-04-23T16:05:55.356Z,9.58
2024-04-23T16:08:22.528Z,9.52
2024-04-23T16:10:58.854Z,9.14
2024-04-23T16:13:26.086Z,9.81
2024-04-23T16:16:03.416Z,10.08
2024-04-23T16:18:39.661Z,10.02
2024-04-23T16:21:07.065Z,10.05
2024-04-23T16:23:43.322Z,10.62
2024-04-23T16:26:10.840Z,10.89
2024-04-23T16:28:38.491Z,10.95
2024-04-23T16:31:05.849Z,10.94
2024-04-23T16:33:33.363Z,11.25
2024-04-23T16:36:09.681Z,10.99
2024-04-23T16:38:36.853Z,10.86
2024-04-23T16:41:13.056Z,11.11
2024-04-23T16:43:49.380Z,10.97
2024-04-23T16:46:25.614Z,10.46
2024-04-23T16:48:53.077Z,10.74
2024-04-23T16:51:20.359Z,10.51
2024-04-23T16:53:47.631Z,10.47
2024-04-23T16:56:14.987Z,10.92
2024-04-23T16:58:42.367Z,11.70
2024-04-23T17:01:09.849Z,11.36
2024-04-23T17:03:46.170Z,11.39
2024-04-23T17:06:22.372Z,11.75
2024-04-23T17:08:49.733Z,11.74
2024-04-23T17:11:26.072Z,11.12
2024-04-23T17:13:53.405Z,12.36
2024-04-23T17:16:20.635Z,12.36
2024-04-23T17:18:56.930Z,11.99
2024-04-23T17:21:24.298Z,12.54
2024-04-23T17:23:55.872Z,12.06
2024-04-23T17:26:32.095Z,12.84
2024-04-23T17:29:08.430Z,12.00
2024-04-23T17:31:35.263Z,12.40
2024-04-23T17:34:02.145Z,12.41
2024-04-23T17:36:28.954Z,11.99
2024-04-23T17:38:55.771Z,11.81
2024-04-23T17:41:22.741Z,12.52
2024-04-23T17:43:49.651Z,11.79
2024-04-23T17:46:16.526Z,12.32
2024-04-23T17:48:43.395Z,12.15
2024-04-23T17:51:10.223Z,12.62
2024-04-23T17:53:37.050Z,12.77
2024-04-23T17:56:03.970Z,13.10
2024-04-23T17:58:31.903Z,12.67
2024-04-23T18:00:58.749Z,13.14
2024-04-23T18:03:25.612Z,13.79
2024-04-23T18:05:52.389Z,14.70
2024-04-23T18:08:20.871Z,13.53
2024-04-23T18:10:47.791Z,12.54
2024-04-23T18:13:14.735Z,12.83
2024-04-23T18:15:44.606Z,13.10
2024-04-23T18:18:11.431Z,13.23
2024-04-23T18:20:38.229Z,12.98
2024-04-23T18:23:05.005Z,13.73
2024-04-23T18:25:31.853Z,13.63
2024-04-23T18:27:58.776Z,14.14
2024-04-23T18:30:26.146Z,13.81
2024-04-23T18:33:02.541Z,14.23
2024-04-23T18:35:38.837Z,13.57
2024-04-23T18:38:06.074Z,14.55
2024-04-23T18:40:32.891Z,14.72
2024-04-23T18:42:59.668Z,14.21
2024-04-23T18:45:26.460Z,14.10
2024-04-23T18:47:53.316Z,14.42
2024-04-23T18:50:20.318Z,14.41
2024-04-23T18:52:47.242Z,13.82
2024-04-23T18:55:14.066Z,14.03
2024-04-23T18:57:40.835Z,14.14
2024-04-23T19:00:09.804Z,14.11
2024-04-23T19:02:36.929Z,13.62
2024-04-23T19:05:03.822Z,13.73
2024-04-23T19:07:30.629Z,13.94
2024-04-23T19:09:57.397Z,13.81
2024-04-23T19:12:24.130Z,13.90
2024-04-23T19:14:50.927Z,13.71
2024-04-23T19:17:17.867Z,13.71
2024-04-23T19:19:44.773Z,14.24
2024-04-23T19:22:11.562Z,14.90
2024-04-23T19:24:38.345Z,14.17
2024-04-23T19:27:05.106Z,13.60
2024-04-23T19:29:31.911Z,13.62
2024-04-23T19:31:58.753Z,14.24
2024-04-23T19:34:25.605Z,13.91
2024-04-23T19:36:52.416Z,14.48
2024-04-23T19:39:19.738Z,14.67
2024-04-23T19:41:46.897Z,15.18
2024-04-23T19:44:14.197Z,14.62
2024-04-23T19:46:50.501Z,14.84
2024-04-23T19:49:17.871Z,14.48
2024-04-23T19:51:45.229Z,14.40
2024-04-23T19:54:21.502Z,15.33
2024-04-23T19:56:49.800Z,19.74
2024-04-23T19:59:17.215Z,15.76
2024-04-23T20:01:53.600Z,15.59
2024-04-23T20:04:29.860Z,16.38
2024-04-23T20:07:06.327Z,16.47
2024-04-23T20:09:42.565Z,16.24
2024-04-23T20:12:10.089Z,16.63
2024-04-23T20:14:37.357Z,16.16
2024-04-23T20:17:04.329Z,16.44
2024-04-23T20:19:32.272Z,16.58
2024-04-23T20:21:59.039Z,16.77
2024-04-23T20:24:25.877Z,16.44
2024-04-23T20:26:52.652Z,15.52
2024-04-23T20:29:19.606Z,15.95
2024-04-23T20:31:46.623Z,16.51
2024-04-23T20:34:13.456Z,16.81
2024-04-23T20:36:40.276Z,16.46
2024-04-23T20:39:09.770Z,17.72
2024-04-23T20:41:36.987Z,18.84
2024-04-23T20:44:03.781Z,18.83
2024-04-23T20:46:30.584Z,19.33
2024-04-23T20:48:57.421Z,17.90
2024-04-23T20:51:24.187Z,17.12
2024-04-23T20:53:50.937Z,16.58
2024-04-23T20:56:17.827Z,16.36
2024-04-23T20:58:44.667Z,16.49
2024-04-23T21:01:11.909Z,17.41
2024-04-23T21:03:42.150Z,16.59
2024-04-23T21:06:08.903Z,16.59
2024-04-23T21:08:35.770Z,15.79
2024-04-23T21:11:02.677Z,16.00
2024-04-23T21:13:31.778Z,16.32
2024-04-23T21:15:59.232Z,17.11
2024-04-23T21:18:26.583Z,17.33
2024-04-23T21:21:02.773Z,16.36
2024-04-23T21:23:29.573Z,16.62
2024-04-23T21:25:56.437Z,17.07
2024-04-23T21:28:23.336Z,16.75
2024-04-23T21:30:50.133Z,17.12
2024-04-23T21:33:17.116Z,16.87
2024-04-23T21:35:44.072Z,16.30
2024-04-23T21:38:10.889Z,16.45
2024-04-23T21:40:37.685Z,15.61
2024-04-23T21:43:04.467Z,15.32
2024-04-23T21:45:31.256Z,15.06
2024-04-23T21:47:58.149Z,15.28
2024-04-23T21:50:25.079Z,14.85
2024-04-23T21:52:51.912Z,15.16
2024-04-23T21:55:18.733Z,14.99
2024-04-23T21:57:46.599Z,14.97
2024-04-23T22:00:13.384Z,14.92
2024-04-23T22:02:40.185Z,15.73
2024-04-23T22:05:07.167Z,15.77
2024-04-23T22:07:34.099Z,16.14
2024-04-23T22:10:00.937Z,16.41
2024-04-23T22:12:27.754Z,16.56
2024-04-23T22:14:54.540Z,16.18
2024-04-23T22:17:22.638Z,16.72
2024-04-23T22:19:49.511Z,16.93
2024-04-23T22:22:16.846Z,17.31
2024-04-23T22:24:43.976Z,18.22
2024-04-23T22:27:20.144Z,16.80
2024-04-23T22:29:47.276Z,16.78
2024-04-23T22:32:24.074Z,15.88
2024-04-23T22:34:51.452Z,15.65
2024-04-23T22:37:29.059Z,15.46
2024-04-23T22:39:56.298Z,15.78
2024-04-23T22:42:32.543Z,15.75
2024-04-23T22:45:08.747Z,15.81
2024-04-23T22:47:36.272Z,15.45
2024-04-23T22:50:03.769Z,15.63
2024-04-23T22:52:30.985Z,15.53
2024-04-23T22:54:58.521Z,15.52
2024-04-23T22:57:34.727Z,15.89
2024-04-23T23:00:10.943Z,15.81
2024-04-23T23:02:38.341Z,16.16
2024-04-23T23:05:14.740Z,16.87
2024-04-23T23:07:42.118Z,17.21
2024-04-23T23:10:09.481Z,17.28
2024-04-23T23:12:45.687Z,16.73
2024-04-23T23:15:13.091Z,17.08
2024-04-23T23:17:49.359Z,17.45
2024-04-23T23:20:16.779Z,16.57
2024-04-23T23:22:53.043Z,17.35
2024-04-23T23:25:20.466Z,16.04
2024-04-23T23:27:47.195Z,16.50
2024-04-23T23:30:14.086Z,17.52
2024-04-23T23:32:40.991Z,17.31
2024-04-23T23:35:07.897Z,16.97
2024-04-23T23:37:34.707Z,17.63
2024-04-23T23:40:01.514Z,16.64
2024-04-23T23:42:28.292Z,17.44
2024-04-23T23:44:55.126Z,17.24
2024-04-23T23:47:21.961Z,16.75
2024-04-23T23:49:48.784Z,17.38
2024-04-23T23:52:15.564Z,16.98
2024-04-23T23:54:42.386Z,17.21
2024-04-23T23:57:13.245Z,17.95
2024-04-23T23:59:40.042Z,18.11
